createdAt,value
2023-04-11T00:00:00.424Z,100.00
2023-04-11T00:02:27.484Z,100.00
2023-04-11T00:04:55.152Z,100.00
2023-04-11T00:07:22.097Z,100.00
2023-04-11T00:09:51.357Z,100.00
2023-04-11T00:12:19.805Z,100.00
2023-04-11T00:14:49.099Z,100.00
2023-04-11T00:17:17.797Z,100.00
2023-04-11T00:19:46.253Z,100.00
2023-04-11T00:22:18.024Z,100.00
2023-04-11T00:24:45.760Z,100.00
2023-04-11T00:27:12.435Z,100.00
2023-04-11T00:29:39.577Z,100.00
2023-04-11T00:32:06.944Z,100.00
2023-04-11T00:34:34.564Z,100.00
2023-04-11T00:37:01.863Z,100.00
2023-04-11T00:39:30.435Z,100.00
2023-04-11T00:42:08.624Z,100.00
2023-04-11T00:44:36.665Z,100.00
2023-04-11T00:47:06.334Z,100.00
2023-04-11T00:49:33.380Z,100.00
2023-04-11T00:52:00.506Z,100.00
2023-04-11T00:54:30.587Z,100.00
2023-04-11T00:56:59.779Z,100.00
2023-04-11T00:59:30.915Z,100.00
2023-04-11T01:01:58.576Z,100.00
2023-04-11T01:04:26.261Z,100.00
2023-04-11T01:06:59.735Z,100.00
2023-04-11T01:09:27.894Z,100.00
2023-04-11T01:11:55.167Z,100.00
2023-04-11T01:14:22.964Z,100.00
2023-04-11T01:16:50.854Z,100.00
2023-04-11T01:19:20.021Z,100.00
2023-04-11T01:21:48.314Z,100.00
2023-04-11T01:24:15.113Z,100.00
2023-04-11T01:26:42.302Z,100.00
2023-04-11T01:29:09.205Z,100.00
2023-04-11T01:31:36.732Z,100.00
2023-04-11T01:34:04.611Z,100.00
2023-04-11T01:36:32.394Z,100.00
2023-04-11T01:38:59.610Z,100.00
2023-04-11T01:41:29.730Z,100.00
2023-04-11T01:43:57.084Z,100.00
2023-04-11T01:46:24.852Z,100.00
2023-04-11T01:48:54.195Z,100.00
2023-04-11T01:51:21.344Z,100.00
2023-04-11T01:53:48.124Z,100.00
2023-04-11T01:56:15.296Z,100.00
2023-04-11T01:58:42.218Z,100.00
2023-04-11T02:01:09.092Z,100.00
2023-04-11T02:03:37.090Z,100.00
2023-04-11T02:06:04.568Z,100.00
2023-04-11T02:08:31.552Z,100.00
2023-04-11T02:10:58.484Z,100.00
2023-04-11T02:13:25.307Z,100.00
2023-04-11T02:15:52.472Z,100.00
2023-04-11T02:18:19.507Z,100.00
2023-04-11T02:20:46.300Z,100.00
2023-04-11T02:23:14.264Z,100.00
2023-04-11T02:25:41.427Z,100.00
2023-04-11T02:28:08.448Z,100.00
2023-04-11T02:30:35.452Z,100.00
2023-04-11T02:33:03.283Z,100.00
2023-04-11T02:35:30.224Z,100.00
2023-04-11T02:38:00.148Z,100.00
2023-04-11T02:40:26.956Z,100.00
2023-04-11T02:42:53.901Z,100.00
2023-04-11T02:45:21.522Z,100.00
2023-04-11T02:47:48.552Z,100.00
2023-04-11T02:50:16.161Z,100.00
2023-04-11T02:52:49.604Z,100.00
2023-04-11T02:55:22.953Z,100.00
2023-04-11T02:57:50.836Z,100.00
2023-04-11T03:00:20.226Z,100.00
2023-04-11T03:02:56.914Z,100.00
2023-04-11T03:05:25.104Z,100.00
2023-04-11T03:07:53.892Z,100.00
2023-04-11T03:10:20.779Z,100.00
2023-04-11T03:12:47.906Z,100.00
2023-04-11T03:15:15.683Z,100.00
2023-04-11T03:17:42.723Z,100.00
2023-04-11T03:20:14.048Z,100.00
2023-04-11T03:22:46.850Z,100.00
2023-04-11T03:25:14.880Z,100.00
2023-04-11T03:27:42.958Z,100.00
2023-04-11T03:30:11.674Z,100.00
2023-04-11T03:32:42.081Z,100.00
2023-04-11T03:35:09.858Z,100.00
2023-04-11T03:37:39.984Z,100.00
2023-04-11T03:40:08.562Z,100.00
2023-04-11T03:42:38.263Z,100.00
2023-04-11T03:45:08.187Z,100.00
2023-04-11T03:47:35.649Z,100.00
2023-04-11T03:50:04.097Z,100.00
2023-04-11T03:52:37.778Z,100.00
2023-04-11T03:55:10.059Z,100.00
2023-04-11T03:57:36.844Z,100.00
2023-04-11T04:00:06.317Z,100.00
2023-04-11T04:02:42.304Z,100.00
2023-04-11T04:05:13.416Z,100.00
2023-04-11T04:07:40.987Z,100.00
2023-04-11T04:10:24.336Z,100.00
2023-04-11T04:12:53.648Z,100.00
2023-04-11T04:15:24.006Z,100.00
2023-04-11T04:17:52.258Z,100.00
2023-04-11T04:20:26.956Z,100.00
2023-04-11T04:22:58.113Z,100.00
2023-04-11T04:25:34.826Z,100.00
2023-04-11T04:28:01.639Z,100.00
2023-04-11T04:30:38.255Z,100.00
2023-04-11T04:33:12.451Z,100.00
2023-04-11T04:35:45.150Z,100.00
2023-04-11T04:38:18.051Z,100.00
2023-04-11T04:40:54.908Z,100.00
2023-04-11T04:43:24.561Z,100.00
2023-04-11T04:46:06.167Z,100.00
2023-04-11T04:48:40.564Z,100.00
2023-04-11T04:51:08.234Z,100.00
2023-04-11T04:53:39.044Z,100.00
2023-04-11T04:56:08.635Z,100.00
2023-04-11T04:58:39.436Z,100.00
2023-04-11T05:01:11.483Z,100.00
2023-04-11T05:03:39.511Z,100.00
2023-04-11T05:06:11.596Z,100.00
2023-04-11T05:08:39.832Z,100.00
2023-04-11T05:11:09.247Z,100.00
2023-04-11T05:13:37.174Z,100.00
2023-04-11T05:16:05.534Z,100.00
2023-04-11T05:18:32.592Z,100.00
2023-04-11T05:20:59.390Z,100.00
2023-04-11T05:23:33.413Z,100.00
2023-04-11T05:26:02.339Z,100.00
2023-04-11T05:28:31.677Z,100.00
2023-04-11T05:30:59.267Z,100.00
2023-04-11T05:33:27.791Z,100.00
2023-04-11T05:35:56.128Z,100.00
2023-04-11T05:38:23.860Z,100.00
2023-04-11T05:40:50.725Z,100.00
2023-04-11T05:43:19.398Z,100.00
2023-04-11T05:45:48.262Z,100.00
2023-04-11T05:48:22.959Z,100.00
2023-04-11T05:50:54.116Z,100.00
2023-04-11T05:53:21.384Z,100.00
2023-04-11T05:55:48.130Z,100.00
2023-04-11T05:58:15.028Z,100.00
2023-04-11T06:00:42.099Z,100.00
2023-04-11T06:03:09.620Z,100.00
2023-04-11T06:05:36.575Z,88.76
2023-04-11T06:08:05.146Z,92.09
2023-04-11T06:10:32.101Z,78.97
2023-04-11T06:12:59.178Z,83.85
2023-04-11T06:15:27.149Z,83.40
2023-04-11T06:17:54.579Z,88.24
2023-04-11T06:20:22.360Z,93.59
2023-04-11T06:22:51.619Z,92.18
2023-04-11T06:25:20.055Z,89.96
2023-04-11T06:27:47.399Z,100.00
2023-04-11T06:30:14.670Z,100.00
2023-04-11T06:32:41.597Z,100.00
2023-04-11T06:35:09.149Z,100.00
2023-04-11T06:37:36.043Z,100.00
2023-04-11T06:40:05.675Z,89.55
2023-04-11T06:42:32.751Z,100.00
2023-04-11T06:44:59.558Z,89.86
2023-04-11T06:47:26.805Z,68.96
2023-04-11T06:49:53.540Z,69.32
2023-04-11T06:52:20.275Z,72.32
2023-04-11T06:54:48.178Z,75.63
2023-04-11T06:57:15.016Z,86.75
2023-04-11T06:59:41.747Z,79.53
2023-04-11T07:02:08.576Z,74.39
2023-04-11T07:04:35.484Z,83.30
2023-04-11T07:07:02.284Z,92.29
2023-04-11T07:09:29.009Z,90.16
2023-04-11T07:11:56.334Z,83.77
2023-04-11T07:14:23.130Z,84.15
2023-04-11T07:16:49.924Z,74.64
2023-04-11T07:19:16.568Z,90.83
2023-04-11T07:21:43.627Z,86.35
2023-04-11T07:24:11.168Z,90.09
2023-04-11T07:26:38.989Z,83.75
2023-04-11T07:29:09.113Z,72.67
2023-04-11T07:31:37.479Z,91.16
2023-04-11T07:34:04.272Z,79.28
2023-04-11T07:36:31.958Z,95.28
2023-04-11T07:39:00.150Z,96.63
2023-04-11T07:41:27.251Z,95.66
2023-04-11T07:43:54.161Z,91.32
2023-04-11T07:46:21.061Z,91.69
2023-04-11T07:48:47.723Z,97.66
2023-04-11T07:51:15.114Z,100.00
2023-04-11T07:53:42.095Z,93.31
2023-04-11T07:56:09.349Z,90.25
2023-04-11T07:58:36.469Z,87.20
2023-04-11T08:01:04.076Z,88.45
2023-04-11T08:03:31.625Z,87.06
2023-04-11T08:05:58.863Z,87.44
2023-04-11T08:08:26.354Z,82.11
2023-04-11T08:10:53.052Z,81.44
2023-04-11T08:13:27.350Z,82.70
2023-04-11T08:15:57.801Z,78.35
2023-04-11T08:18:25.552Z,81.31
2023-04-11T08:20:52.952Z,87.27
2023-04-11T08:23:21.622Z,88.15
2023-04-11T08:25:48.364Z,88.65
2023-04-11T08:28:17.038Z,83.24
2023-04-11T08:30:43.840Z,75.22
2023-04-11T08:33:12.535Z,75.38
2023-04-11T08:35:43.095Z,72.24
2023-04-11T08:38:09.892Z,80.15
2023-04-11T08:40:36.806Z,79.06
2023-04-11T08:43:03.979Z,78.01
2023-04-11T08:45:31.058Z,77.58
2023-04-11T08:47:58.288Z,67.19
2023-04-11T08:50:26.265Z,66.41
2023-04-11T08:52:53.202Z,64.88
2023-04-11T08:55:20.881Z,63.55
2023-04-11T08:57:47.787Z,64.64
2023-04-11T09:00:15.394Z,62.60
2023-04-11T09:03:03.353Z,63.23
2023-04-11T09:05:33.589Z,63.67
2023-04-11T09:08:04.638Z,64.26
2023-04-11T09:10:31.569Z,63.83
2023-04-11T09:12:59.046Z,64.02
2023-04-11T09:15:30.289Z,63.06
2023-04-11T09:18:00.284Z,61.27
2023-04-11T09:20:30.424Z,63.16
2023-04-11T09:22:59.117Z,59.53
2023-04-11T09:25:25.935Z,62.01
2023-04-11T09:28:08.291Z,62.99
2023-04-11T09:30:35.304Z,59.04
2023-04-11T09:33:24.175Z,63.99
2023-04-11T09:35:53.547Z,63.09
2023-04-11T09:38:35.155Z,56.83
2023-04-11T09:41:03.885Z,56.20
2023-04-11T09:43:50.879Z,55.43
2023-04-11T09:46:21.080Z,56.05
2023-04-11T09:48:53.092Z,56.38
2023-04-11T09:51:35.241Z,57.93
2023-04-11T09:54:04.898Z,54.84
2023-04-11T09:56:35.045Z,55.30
2023-04-11T09:59:02.827Z,55.86
2023-04-11T10:01:29.552Z,54.82
2023-04-11T10:03:57.745Z,55.92
2023-04-11T10:06:35.070Z,56.06
2023-04-11T10:09:10.963Z,56.44
2023-04-11T10:11:41.409Z,55.36
2023-04-11T10:14:08.177Z,55.59
2023-04-11T10:16:35.263Z,54.67
2023-04-11T10:19:02.014Z,52.92
2023-04-11T10:21:35.152Z,55.31
2023-04-11T10:24:20.315Z,53.10
2023-04-11T10:26:57.639Z,53.78
2023-04-11T10:29:33.031Z,55.23
2023-04-11T10:32:19.245Z,55.89
2023-04-11T10:35:10.681Z,54.38
2023-04-11T10:37:37.807Z,55.47
2023-04-11T10:40:11.185Z,55.51
2023-04-11T10:42:43.004Z,54.20
2023-04-11T10:45:18.939Z,53.55
2023-04-11T10:47:52.132Z,57.42
2023-04-11T10:50:42.219Z,82.65
2023-04-11T10:53:14.431Z,100.00
2023-04-11T10:55:50.742Z,100.00
2023-04-11T10:58:22.375Z,100.00
2023-04-11T11:00:55.794Z,100.00
2023-04-11T11:03:30.834Z,100.00
2023-04-11T11:06:04.056Z,100.00
2023-04-11T11:08:33.458Z,100.00
2023-04-11T11:11:07.034Z,100.00
2023-04-11T11:13:41.681Z,100.00
2023-04-11T11:16:11.104Z,100.00
2023-04-11T11:18:38.845Z,100.00
2023-04-11T11:21:09.306Z,100.00
2023-04-11T11:23:47.766Z,100.00
2023-04-11T11:26:14.549Z,97.65
2023-04-11T11:28:48.730Z,100.00
2023-04-11T11:31:15.674Z,98.02
2023-04-11T11:33:42.773Z,93.22
2023-04-11T11:36:10.607Z,95.53
2023-04-11T11:38:37.593Z,92.58
2023-04-11T11:41:04.705Z,91.36
2023-04-11T11:43:36.298Z,90.97
2023-04-11T11:46:08.815Z,89.99
2023-04-11T11:48:36.277Z,82.90
2023-04-11T11:51:03.224Z,76.51
2023-04-11T11:53:30.122Z,67.23
2023-04-11T11:55:56.893Z,65.92
2023-04-11T11:58:24.090Z,67.47
2023-04-11T12:00:51.718Z,65.39
2023-04-11T12:03:22.554Z,65.81
2023-04-11T12:05:51.583Z,63.24
2023-04-11T12:08:20.656Z,63.45
2023-04-11T12:10:48.127Z,65.50
2023-04-11T12:13:19.190Z,57.43
2023-04-11T12:15:57.276Z,56.76
2023-04-11T12:18:25.852Z,56.92
2023-04-11T12:20:52.776Z,57.89
2023-04-11T12:23:20.375Z,56.06
2023-04-11T12:25:47.670Z,58.17
2023-04-11T12:28:14.686Z,59.54
2023-04-11T12:30:41.701Z,56.62
2023-04-11T12:33:08.761Z,57.26
2023-04-11T12:35:35.624Z,56.88
2023-04-11T12:38:02.413Z,56.95
2023-04-11T12:40:29.830Z,56.04
2023-04-11T12:42:57.471Z,56.15
2023-04-11T12:45:24.778Z,60.15
2023-04-11T12:47:51.663Z,57.77
2023-04-11T12:50:18.536Z,58.99
2023-04-11T12:52:45.537Z,58.87
2023-04-11T12:55:13.177Z,60.94
2023-04-11T12:57:41.091Z,58.17
2023-04-11T13:00:08.969Z,58.00
2023-04-11T13:02:43.789Z,57.75
2023-04-11T13:05:14.679Z,57.75
2023-04-11T13:07:42.692Z,60.61
2023-04-11T13:10:10.260Z,60.07
2023-04-11T13:12:41.602Z,61.56
2023-04-11T13:15:09.866Z,59.76
2023-04-11T13:17:36.805Z,59.85
2023-04-11T13:20:13.334Z,59.06
2023-04-11T13:22:41.415Z,59.03
2023-04-11T13:25:08.852Z,57.09
2023-04-11T13:27:36.400Z,56.57
2023-04-11T13:30:04.987Z,56.98
2023-04-11T13:32:32.630Z,55.49
2023-04-11T13:34:59.557Z,56.96
2023-04-11T13:37:26.831Z,57.63
2023-04-11T13:39:53.650Z,57.91
2023-04-11T13:42:21.849Z,58.48
2023-04-11T13:44:48.520Z,59.71
2023-04-11T13:47:15.536Z,58.06
2023-04-11T13:49:42.369Z,55.80
2023-04-11T13:52:09.181Z,53.83
2023-04-11T13:54:38.150Z,53.22
2023-04-11T13:57:07.800Z,52.09
2023-04-11T13:59:34.833Z,52.74
2023-04-11T14:02:02.822Z,52.06
2023-04-11T14:04:29.913Z,52.61
2023-04-11T14:06:57.223Z,52.19
2023-04-11T14:09:24.213Z,51.35
2023-04-11T14:11:51.282Z,50.50
2023-04-11T14:14:18.138Z,51.67
2023-04-11T14:16:45.177Z,52.48
2023-04-11T14:19:11.918Z,51.48
2023-04-11T14:21:38.795Z,50.72
2023-04-11T14:24:05.911Z,50.47
2023-04-11T14:26:32.620Z,49.21
2023-04-11T14:28:59.538Z,48.04
2023-04-11T14:31:26.562Z,49.17
2023-04-11T14:33:53.797Z,49.26
2023-04-11T14:36:20.610Z,49.47
2023-04-11T14:38:47.408Z,49.38
2023-04-11T14:41:14.178Z,49.16
2023-04-11T14:43:41.274Z,48.84
2023-04-11T14:46:08.141Z,50.30
2023-04-11T14:48:35.088Z,51.92
2023-04-11T14:51:05.470Z,50.39
2023-04-11T14:53:32.509Z,51.29
2023-04-11T14:55:59.367Z,51.13
2023-04-11T14:58:26.361Z,51.83
2023-04-11T15:00:53.211Z,52.32
2023-04-11T15:03:20.296Z,52.52
2023-04-11T15:05:52.897Z,54.08
2023-04-11T15:08:19.745Z,55.56
2023-04-11T15:10:46.460Z,55.94
2023-04-11T15:13:13.227Z,54.82
2023-04-11T15:15:40.360Z,54.09
2023-04-11T15:18:21.977Z,53.01
2023-04-11T15:20:49.410Z,52.88
2023-04-11T15:23:16.637Z,56.01
2023-04-11T15:25:43.672Z,61.65
2023-04-11T15:28:11.154Z,63.57
2023-04-11T15:30:47.026Z,65.99
2023-04-11T15:33:14.199Z,66.42
2023-04-11T15:35:44.519Z,66.40
2023-04-11T15:38:12.761Z,67.50
2023-04-11T15:40:40.127Z,66.42
2023-04-11T15:43:07.602Z,65.69
2023-04-11T15:45:38.480Z,66.98
2023-04-11T15:48:05.768Z,64.20
2023-04-11T15:50:32.843Z,67.16
2023-04-11T15:53:00.387Z,63.90
2023-04-11T15:55:27.399Z,63.52
2023-04-11T15:58:01.311Z,65.35
2023-04-11T16:00:37.271Z,68.31
2023-04-11T16:03:04.945Z,64.81
2023-04-11T16:05:32.544Z,67.95
2023-04-11T16:07:59.483Z,64.60
2023-04-11T16:10:26.833Z,64.33
2023-04-11T16:12:53.631Z,66.85
2023-04-11T16:15:20.356Z,64.85
2023-04-11T16:17:47.389Z,66.07
2023-04-11T16:20:18.840Z,63.97
2023-04-11T16:22:46.978Z,63.83
2023-04-11T16:25:21.202Z,61.06
2023-04-11T16:27:48.625Z,62.29
2023-04-11T16:30:16.763Z,62.99
2023-04-11T16:32:43.890Z,63.58
2023-04-11T16:35:10.654Z,66.13
2023-04-11T16:37:37.541Z,63.27
2023-04-11T16:40:10.693Z,64.03
2023-04-11T16:42:40.691Z,67.38
2023-04-11T16:45:08.853Z,70.39
2023-04-11T16:47:36.079Z,69.67
2023-04-11T16:50:03.962Z,69.50
2023-04-11T16:52:31.161Z,69.02
2023-04-11T16:54:58.551Z,73.26
2023-04-11T16:57:25.770Z,81.05
2023-04-11T16:59:52.606Z,100.00
2023-04-11T17:02:19.407Z,100.00
2023-04-11T17:04:46.681Z,100.00
2023-04-11T17:07:13.804Z,100.00
2023-04-11T17:09:41.531Z,100.00
2023-04-11T17:12:08.208Z,100.00
2023-04-11T17:14:36.446Z,100.00
2023-04-11T17:17:03.642Z,100.00
2023-04-11T17:19:34.054Z,100.00
2023-04-11T17:22:01.836Z,100.00
2023-04-11T17:24:29.389Z,100.00
2023-04-11T17:26:57.141Z,100.00
2023-04-11T17:29:23.970Z,100.00
2023-04-11T17:31:52.027Z,100.00
2023-04-11T17:34:18.849Z,100.00
2023-04-11T17:36:46.061Z,100.00
2023-04-11T17:39:17.588Z,100.00
2023-04-11T17:41:45.732Z,100.00
2023-04-11T17:44:13.057Z,100.00
2023-04-11T17:46:39.905Z,100.00
2023-04-11T17:49:06.619Z,100.00
2023-04-11T17:51:33.933Z,100.00
2023-04-11T17:54:00.799Z,100.00
2023-04-11T17:56:27.539Z,100.00
2023-04-11T17:58:56.029Z,100.00
2023-04-11T18:01:23.820Z,100.00
2023-04-11T18:03:50.956Z,100.00
2023-04-11T18:06:18.240Z,100.00
2023-04-11T18:08:50.528Z,100.00
2023-04-11T18:11:18.350Z,100.00
2023-04-11T18:13:46.420Z,100.00
2023-04-11T18:16:15.778Z,100.00
2023-04-11T18:18:42.685Z,100.00
2023-04-11T18:21:09.899Z,100.00
2023-04-11T18:23:36.779Z,100.00
2023-04-11T18:26:03.921Z,100.00
2023-04-11T18:28:30.790Z,100.00
2023-04-11T18:30:57.685Z,100.00
2023-04-11T18:33:25.743Z,100.00
2023-04-11T18:35:52.582Z,100.00
2023-04-11T18:38:19.496Z,100.00
2023-04-11T18:40:46.373Z,100.00
2023-04-11T18:43:14.063Z,100.00
2023-04-11T18:45:42.224Z,100.00
2023-04-11T18:48:10.368Z,100.00
2023-04-11T18:50:39.036Z,100.00
2023-04-11T18:53:10.660Z,100.00
2023-04-11T18:55:40.344Z,100.00
2023-04-11T18:58:09.615Z,100.00
2023-04-11T19:00:39.784Z,100.00
2023-04-11T19:03:07.167Z,100.00
2023-04-11T19:05:34.716Z,100.00
2023-04-11T19:08:02.875Z,100.00
2023-04-11T19:10:30.136Z,100.00
2023-04-11T19:12:56.970Z,100.00
2023-04-11T19:15:24.082Z,100.00
2023-04-11T19:17:51.681Z,100.00
2023-04-11T19:20:19.275Z,100.00
2023-04-11T19:22:46.567Z,100.00
2023-04-11T19:25:13.393Z,100.00
2023-04-11T19:27:41.990Z,100.00
2023-04-11T19:30:11.232Z,100.00
2023-04-11T19:32:38.802Z,100.00
2023-04-11T19:35:08.886Z,100.00
2023-04-11T19:37:36.642Z,100.00
2023-04-11T19:40:07.540Z,100.00
2023-04-11T19:42:37.051Z,100.00
2023-04-11T19:45:05.008Z,100.00
2023-04-11T19:47:32.790Z,100.00
2023-04-11T19:50:01.325Z,100.00
2023-04-11T19:52:28.683Z,100.00
2023-04-11T19:54:56.716Z,100.00
2023-04-11T19:57:25.621Z,100.00
2023-04-11T19:59:52.388Z,100.00
2023-04-11T20:02:19.446Z,100.00
2023-04-11T20:04:46.667Z,100.00
2023-04-11T20:07:13.552Z,100.00
2023-04-11T20:09:40.363Z,100.00
2023-04-11T20:12:07.436Z,100.00
2023-04-11T20:14:34.507Z,100.00
2023-04-11T20:17:05.334Z,100.00
2023-04-11T20:19:33.353Z,100.00
2023-04-11T20:22:03.673Z,100.00
2023-04-11T20:24:30.806Z,100.00
2023-04-11T20:26:58.162Z,100.00
2023-04-11T20:29:30.924Z,100.00
2023-04-11T20:31:58.415Z,100.00
2023-04-11T20:34:25.477Z,100.00
2023-04-11T20:36:52.657Z,100.00
2023-04-11T20:39:19.624Z,100.00
2023-04-11T20:41:47.353Z,100.00
2023-04-11T20:44:19.222Z,100.00
2023-04-11T20:46:46.365Z,100.00
2023-04-11T20:49:13.349Z,100.00
2023-04-11T20:51:41.254Z,100.00
2023-04-11T20:54:11.123Z,100.00
2023-04-11T20:56:38.322Z,100.00
2023-04-11T20:59:05.314Z,100.00
2023-04-11T21:01:33.033Z,100.00
2023-04-11T21:04:03.693Z,100.00
2023-04-11T21:06:34.468Z,100.00
2023-04-11T21:09:05.944Z,100.00
2023-04-11T21:11:33.746Z,100.00
2023-04-11T21:14:00.659Z,100.00
2023-04-11T21:16:28.303Z,100.00
2023-04-11T21:18:55.199Z,100.00
2023-04-11T21:21:21.972Z,100.00
2023-04-11T21:23:48.829Z,100.00
2023-04-11T21:26:15.626Z,100.00
2023-04-11T21:28:44.530Z,100.00
2023-04-11T21:31:15.672Z,100.00
2023-04-11T21:34:05.883Z,100.00
2023-04-11T21:36:34.577Z,100.00
2023-04-11T21:39:01.796Z,100.00
2023-04-11T21:41:34.864Z,100.00
2023-04-11T21:44:02.901Z,100.00
2023-04-11T21:46:30.501Z,100.00
2023-04-11T21:48:59.369Z,100.00
2023-04-11T21:51:27.626Z,100.00
2023-04-11T21:53:59.277Z,100.00
2023-04-11T21:56:26.130Z,100.00
2023-04-11T21:58:52.947Z,100.00
2023-04-11T22:01:21.666Z,100.00
2023-04-11T22:03:56.984Z,100.00
2023-04-11T22:06:26.679Z,100.00
2023-04-11T22:08:54.305Z,100.00
2023-04-11T22:11:24.444Z,100.00
2023-04-11T22:13:52.946Z,100.00
2023-04-11T22:16:30.433Z,100.00
2023-04-11T22:19:07.872Z,100.00
2023-04-11T22:21:34.842Z,100.00
2023-04-11T22:24:02.406Z,100.00
2023-04-11T22:26:43.989Z,100.00
2023-04-11T22:29:12.417Z,100.00
2023-04-11T22:31:44.182Z,100.00
2023-04-11T22:34:18.927Z,100.00
2023-04-11T22:36:47.649Z,100.00
2023-04-11T22:39:14.651Z,100.00
2023-04-11T22:41:44.757Z,100.00
2023-04-11T22:44:14.614Z,100.00
2023-04-11T22:47:09.004Z,100.00
2023-04-11T22:49:42.411Z,100.00
2023-04-11T22:52:14.252Z,100.00
2023-04-11T22:54:43.087Z,100.00
2023-04-11T22:57:16.064Z,100.00
2023-04-11T22:59:43.005Z,100.00
2023-04-11T23:02:10.220Z,100.00
2023-04-11T23:04:37.210Z,100.00
2023-04-11T23:07:05.459Z,100.00
2023-04-11T23:09:32.330Z,100.00
2023-04-11T23:11:58.995Z,100.00
2023-04-11T23:14:31.324Z,100.00
2023-04-11T23:16:58.587Z,100.00
2023-04-11T23:19:25.644Z,100.00
2023-04-11T23:21:52.531Z,100.00
2023-04-11T23:24:19.392Z,100.00
2023-04-11T23:26:46.535Z,100.00
2023-04-11T23:29:13.403Z,100.00
2023-04-11T23:31:40.674Z,100.00
2023-04-11T23:34:07.449Z,100.00
2023-04-11T23:36:34.604Z,100.00
2023-04-11T23:39:02.119Z,100.00
2023-04-11T23:41:30.333Z,100.00
2023-04-11T23:43:57.415Z,100.00
2023-04-11T23:46:24.737Z,100.00
2023-04-11T23:48:52.969Z,100.00
2023-04-11T23:51:19.703Z,100.00
2023-04-11T23:53:46.473Z,100.00
2023-04-11T23:56:14.009Z,100.00
2023-04-11T23:58:41.010Z,100.00
